Latest Weather Observations for Roma

IDQ60801

Issued at 8:02 am EST Saturday 21 January 2017 (issued every 30 minutes, with the page automatically refreshed every 10 minutes)

About weather observations | Map of weather stations | Latest weather observations for QLD | Other Formats
Station Details ID: 043091 Name: ROMA AIRPORT Lat: -26.55 Lon: 148.77 Height: 307.38 m
Data from the previous 72 hours. | See also: Recent months at Roma
Date/Time
EST
Temp
°C
App
Temp
°C
Dew
Point
°C
Rel
Hum
%
Delta-T
°C
Wind Press
QNH
hPa
Press
MSL
hPa
Rain since
9am
mm
Dir  Spd
km/h
Gust
km/h
Spd
kts
Gust
kts
21/07:30am 26.8 30.4 23.1 80 2.5 NW 9 13 5 7 1009.9 1007.9 1.0
21/07:00am 26.1 29.3 23.0 83 2.1 NW 11 13 6 7 1009.6 1007.6 1.0
21/06:30am 25.4 28.7 22.5 84 2.0 NNW 9 11 5 6 1009.4 1007.4 1.0
21/06:00am 24.9 28.5 22.4 86 1.7 NNW 7 9 4 5 1008.8 1006.7 1.0
21/05:30am 24.8 28.5 22.3 86 1.7 NNW 6 7 3 4 1008.3 1006.2 1.0
21/05:00am 24.9 28.3 22.0 84 2.0 NNW 7 7 4 4 1008.0 1005.9 1.0
21/04:30am 25.1 28.5 22.0 83 2.1 NW 7 11 4 6 1007.5 1005.4 1.0
21/04:00am 25.6 29.0 22.7 84 2.0 WNW 9 11 5 6 1007.2 1005.1 1.0
21/03:30am 25.4 29.2 22.7 85 1.8 N 7 9 4 5 1006.5 1004.5 1.0
21/03:00am 25.6 29.5 22.5 83 2.1 N 6 9 3 5 1006.7 1004.7 1.0
21/02:30am 25.7 29.5 22.4 82 2.2 NNW 6 7 3 4 1007.1 1005.0 1.0
21/02:00am 26.0 29.4 22.7 82 2.3 WNW 9 9 5 5 1007.6 1005.5 1.0
21/01:30am 25.8 29.3 22.9 84 2.0 NW 9 11 5 6 1008.0 1005.9 1.0
21/01:00am 26.4 29.4 23.3 83 2.1 SW 13 20 7 11 1007.8 1005.7 1.0
21/12:30am 26.0 29.4 22.7 82 2.3 N 9 17 5 9 1007.0 1004.9 1.0
21/12:00am 26.2 31.5 23.1 83 2.1 CALM 0 0 0 0 1007.3 1005.2 0.6
 
Date/Time
EST
Temp
°C
App
Temp
°C
Dew
Point
°C
Rel
Hum
%
Delta-T
°C
Wind Press
QNH
hPa
Press
MSL
hPa
Rain since
9am
mm
Dir  Spd
km/h
Gust
km/h
Spd
kts
Gust
kts
20/11:30pm 26.1 31.3 22.8 82 2.3 CALM 0 0 0 0 1007.4 1005.3 0.6
20/11:00pm 25.9 29.2 22.6 82 2.3 NNE 9 11 5 6 1007.5 1005.4 0.6
20/10:30pm 25.9 29.5 22.4 81 2.4 NE 7 9 4 5 1007.7 1005.6 0.6
20/10:00pm 26.0 29.5 22.1 79 2.6 WNW 7 9 4 5 1007.8 1005.7 0.6
20/09:30pm 26.6 29.5 21.8 75 3.2 SW 9 11 5 6 1007.7 1005.6 0.6
20/09:00pm 27.2 29.2 22.2 74 3.4 WSW 15 22 8 12 1007.6 1005.5 0.4
20/08:30pm 27.1 24.6 20.9 69 4.1 W 35 48 19 26 1007.4 1005.3 0.2
20/08:24pm 31.1 29.1 19.1 48 7.9 NW 28 46 15 25 1007.3 1005.2 0.0
20/08:23pm 31.6 29.2 18.2 44 8.7 NW 28 46 15 25 1007.3 1005.2 0.0
20/08:00pm 32.1 32.8 17.9 42 9.3 WSW 11 15 6 8 1005.9 1003.8 0.0
20/07:30pm 31.9 29.9 17.4 42 9.4 WSW 24 35 13 19 1005.8 1003.7 0.0
20/07:18pm 33.0 31.4 16.4 37 10.6 W 20 37 11 20 1005.6 1003.5 0.0
20/07:00pm 33.7 33.3 16.1 34 11.2 NNW 13 17 7 9 1005.1 1003.0 0.0
20/06:30pm 35.0 33.1 15.3 30 12.5 NW 19 24 10 13 1004.9 1002.8 0.0
20/06:00pm 35.2 33.2 15.5 30 12.5 NW 20 30 11 16 1004.5 1002.4 0.0
20/05:30pm 36.2 32.4 14.8 28 13.5 WNW 28 37 15 20 1004.1 1002.0 0.0
20/05:00pm 36.5 33.4 14.5 27 13.9 NNW 24 33 13 18 1003.8 1001.7 0.0
20/04:30pm 36.8 33.3 13.5 24 14.5 WNW 24 33 13 18 1003.8 1001.7 0.0
20/04:00pm 38.5 33.4 13.7 23 15.6 WNW 33 46 18 25 1003.8 1001.7 0.0
20/03:30pm 38.4 33.8 13.6 23 15.5 NW 30 43 16 23 1004.1 1002.0 0.0
20/03:00pm 37.5 32.7 14.1 24 14.7 WNW 32 39 17 21 1004.7 1002.6 0.0
20/02:34pm 38.8 35.2 15.2 24 15.1 WNW 28 46 15 25 1004.9 1002.8 0.0
20/02:30pm 37.7 33.0 14.3 25 14.7 WNW 32 46 17 25 1005.0 1002.9 0.0
20/02:00pm 37.3 32.1 13.3 23 14.9 NW 33 43 18 23 1005.5 1003.4 0.0
20/01:33pm 37.7 33.6 13.7 24 15.0 WNW 28 46 15 25 1005.8 1003.7 0.0
20/01:30pm 37.6 33.6 14.2 25 14.7 WNW 28 43 15 23 1005.9 1003.8 0.0
20/01:00pm 37.6 32.9 14.2 25 14.7 NW 32 48 17 26 1006.1 1004.1 0.0
20/12:40pm 37.4 33.4 14.0 24 14.7 NW 28 46 15 25 1006.4 1004.4 0.0
20/12:30pm 37.2 32.9 14.5 26 14.3 NNW 30 44 16 24 1006.6 1004.6 0.0
20/12:00pm 35.8 31.5 14.4 27 13.4 N 30 44 16 24 1007.0 1004.9 0.0
20/11:30am 36.4 33.5 17.0 31 12.6 NNW 28 39 15 21 1007.4 1005.3 0.0
20/11:21am 35.8 31.7 15.0 29 13.1 N 30 48 16 26 1007.5 1005.4 0.0
20/11:00am 35.1 30.8 15.9 31 12.3 N 33 44 18 24 1007.6 1005.5 0.0
20/10:30am 34.3 30.6 17.5 36 10.9 N 33 46 18 25 1008.1 1006.0 0.0
20/10:00am 33.6 29.3 16.0 34 11.2 N 33 48 18 26 1008.5 1006.4 0.0
20/09:41am 33.2 29.7 17.8 40 10.0 N 33 52 18 28 1008.5 1006.4 0.0
20/09:30am 32.2 27.1 16.9 40 9.8 N 39 48 21 26 1008.5 1006.4 0.0
20/09:00am 31.4 27.0 18.4 46 8.5 N 39 50 21 27 1008.4 1006.3 16.4
20/08:30am 30.2 26.8 18.9 50 7.4 N 35 48 19 26 1008.6 1006.5 16.4
20/08:00am 29.3 25.1 19.0 53 6.8 N 39 56 21 30 1008.7 1006.6 16.4
20/07:30am 28.7 26.0 19.6 58 6.0 N 33 46 18 25 1008.7 1006.6 16.4
20/07:00am 27.8 27.0 20.1 63 5.1 N 24 32 13 17 1008.7 1006.6 16.4
20/06:30am 26.7 26.9 20.5 69 4.1 NNE 20 30 11 16 1008.4 1006.3 16.4
20/06:00am 25.8 26.5 20.4 72 3.6 NNE 17 22 9 12 1008.0 1005.9 16.4
20/05:30am 25.7 26.2 20.0 71 3.7 NNE 17 22 9 12 1007.6 1005.5 16.4
20/05:00am 26.0 26.1 19.9 69 4.0 NNE 19 24 10 13 1007.2 1005.1 16.4
20/04:30am 26.4 26.3 20.0 68 4.2 NNE 20 30 11 16 1006.9 1004.8 16.4
20/04:00am 26.5 26.4 19.9 67 4.4 NNE 20 30 11 16 1006.4 1004.4 16.4
20/03:30am 26.6 26.4 19.7 66 4.5 NNE 20 32 11 17 1006.6 1004.6 16.4
20/03:00am 26.4 26.9 20.0 68 4.2 NNE 17 22 9 12 1006.6 1004.6 16.4
20/02:30am 26.4 27.2 19.8 67 4.3 NNE 15 17 8 9 1007.1 1005.0 16.4
20/02:00am 26.4 27.6 20.0 68 4.2 NNE 13 15 7 8 1007.5 1005.4 16.4
20/01:30am 26.6 27.8 20.0 67 4.3 NE 13 17 7 9 1007.5 1005.4 16.4
20/01:00am 27.1 28.3 20.0 65 4.7 NNE 13 17 7 9 1007.6 1005.5 16.4
20/12:30am 27.3 28.5 19.9 64 4.9 NNE 13 17 7 9 1007.6 1005.5 16.4
20/12:00am 27.5 28.9 20.3 65 4.8 N 13 17 7 9 1007.7 1005.6 16.4
 
Date/Time
EST
Temp
°C
App
Temp
°C
Dew
Point
°C
Rel
Hum
%
Delta-T
°C
Wind Press
QNH
hPa
Press
MSL
hPa
Rain since
9am
mm
Dir  Spd
km/h
Gust
km/h
Spd
kts
Gust
kts
19/11:30pm 27.7 29.8 21.0 67 4.5 NNE 11 17 6 9 1008.0 1005.9 16.4
19/11:00pm 27.1 29.6 21.8 73 3.6 N 11 11 6 6 1008.0 1005.9 16.4
19/10:30pm 27.5 30.7 22.4 73 3.5 N 9 11 5 6 1007.9 1005.8 16.4
19/10:00pm 27.8 30.0 21.8 70 4.1 N 13 13 7 7 1008.0 1005.9 16.4
19/09:30pm 28.1 30.7 21.9 69 4.2 NNE 11 13 6 7 1008.0 1005.9 16.4
19/09:00pm 28.1 30.3 21.9 69 4.2 N 13 17 7 9 1007.9 1005.8 16.2
19/08:30pm 28.2 30.2 21.5 67 4.5 N 13 15 7 8 1008.0 1005.9 16.2
19/08:00pm 29.0 31.5 20.2 59 5.9 NE 7 9 4 5 1007.6 1005.5 16.2
19/07:30pm 29.0 31.1 20.2 59 5.9 ENE 9 11 5 6 1007.4 1005.3 16.2
19/07:00pm 29.4 31.0 20.8 60 5.8 E 13 17 7 9 1007.4 1005.3 16.2
19/06:30pm 30.1 33.3 22.3 63 5.4 E 9 11 5 6 1007.1 1005.0 16.2
19/06:00pm 30.5 34.0 22.1 61 5.8 ENE 7 9 4 5 1006.9 1004.8 16.2
19/05:30pm 30.8 35.6 22.1 59 6.0 CALM 0 0 0 0 1006.9 1004.8 16.2
19/05:00pm 30.3 34.1 22.7 64 5.3 NE 7 9 4 5 1007.2 1005.1 16.2
19/04:30pm 29.9 34.1 24.1 71 4.1 SE 9 13 5 7 1007.7 1005.6 16.2
19/04:00pm 28.6 33.4 24.2 77 3.1 SE 6 9 3 5 1007.5 1005.4 16.2
19/03:31pm 26.7 27.9 22.5 78 2.9 SSE 20 24 11 13 1007.5 1005.4 16.0
19/03:30pm 26.5 28.1 23.2 82 2.3 SSE 20 24 11 13 1007.5 1005.4 16.0
19/03:01pm 26.1 23.8 20.2 70 3.9 ESE 32 50 17 27 1008.3 1006.2 9.2
19/03:00pm 26.2 23.7 20.1 69 4.0 ESE 33 50 18 27 1008.3 1006.2 8.6
19/02:51pm 26.8 23.7 18.9 62 5.1 ESE 33 57 18 31 1008.2 1006.1 2.8
19/02:50pm 27.3 24.2 18.3 58 5.8 SE 32 57 17 31 1008.0 1005.9 2.2
19/02:49pm 27.5 25.4 19.0 59 5.5 SE 28 39 15 21 1008.1 1006.0 1.8
19/02:42pm 32.5 30.9 15.9 36 10.5 S 19 39 10 21 1007.7 1005.6 0.0
19/02:30pm 35.9 34.9 15.6 30 12.9 S 15 20 8 11 1007.5 1005.4 0.0
19/02:00pm 38.5 36.9 15.0 25 15.0 NW 17 35 9 19 1007.8 1005.7 0.0
19/01:30pm 37.8 35.8 15.0 26 14.5 NW 19 30 10 16 1008.2 1006.1 0.0
19/01:00pm 37.4 35.9 15.2 26 14.2 WNW 17 26 9 14 1008.8 1006.7 0.0
19/12:30pm 36.8 35.4 16.9 31 12.9 WNW 20 30 11 16 1009.2 1007.2 0.0
19/12:00pm 35.7 34.7 17.9 35 11.7 NNW 20 28 11 15 1009.6 1007.6 0.0
19/11:30am 33.6 34.2 18.5 40 9.9 NNW 13 19 7 10 1010.1 1008.1 0.0
19/11:00am 33.1 33.1 17.3 39 10.2 NNW 13 20 7 11 1010.6 1008.5 0.0
19/10:30am 32.2 31.7 17.7 42 9.4 NNW 17 20 9 11 1010.8 1008.7 0.0
19/10:00am 31.8 30.9 16.9 40 9.6 NNW 17 22 9 12 1011.2 1009.1 0.0
19/09:30am 31.8 30.1 15.7 37 10.1 NNW 19 24 10 13 1011.3 1009.2 0.0
19/09:00am 31.4 29.9 16.2 40 9.6 NNW 19 26 10 14 1011.2 1009.1 -
19/08:30am 30.3 29.5 17.0 44 8.5 NNW 17 22 9 12 1011.1 1009.0 -
19/08:00am 29.7 29.5 16.8 45 8.2 NW 13 19 7 10 1011.4 1009.3 -
19/07:30am 28.1 30.7 20.1 62 5.3 NNE 6 7 3 4 1011.3 1009.2 -
19/07:00am 26.9 29.7 20.5 68 4.3 NNE 6 7 3 4 1011.1 1009.0 -
19/06:30am 26.2 28.8 20.1 69 4.0 NNE 6 7 3 4 1011.0 1008.9 -
19/06:00am 25.2 27.5 19.8 72 3.5 N 7 11 4 6 1010.6 1008.5 -
19/05:30am 24.3 26.3 19.1 73 3.4 NNE 7 11 4 6 1010.3 1008.2 -
19/05:00am 23.8 25.9 19.3 76 2.9 N 7 9 4 5 1009.7 1007.7 -
19/04:30am 24.8 27.1 19.4 72 3.5 NNE 6 7 3 4 1009.6 1007.6 -
19/04:00am 24.4 26.2 19.5 74 3.2 NNE 9 11 5 6 1009.4 1007.4 -
19/03:30am 25.6 26.3 18.0 63 4.8 WNW 11 13 6 7 1009.6 1007.6 -
19/03:00am 25.5 27.4 18.9 67 4.3 NW 7 7 4 4 1009.6 1007.6 0.0
19/02:30am 25.7 28.5 19.6 69 4.0 NNE 4 9 2 5 1009.7 1007.7 -
19/02:00am 26.7 28.2 18.0 59 5.6 W 7 9 4 5 1009.8 1007.8 -
19/01:30am 26.1 28.6 18.2 61 5.1 N 2 7 1 4 1009.9 1007.9 -
19/01:00am 26.0 27.4 17.9 61 5.2 NNE 7 11 4 6 1010.0 1008.0 -
19/12:30am 27.3 28.8 16.6 52 6.7 W 4 7 2 4 1010.7 1008.6 -
19/12:00am 28.2 28.1 16.1 47 7.6 SSW 11 19 6 10 1010.8 1008.7 -
 
Date/Time
EST
Temp
°C
App
Temp
°C
Dew
Point
°C
Rel
Hum
%
Delta-T
°C
Wind Press
QNH
hPa
Press
MSL
hPa
Rain since
9am
mm
Dir  Spd
km/h
Gust
km/h
Spd
kts
Gust
kts
18/11:30pm 26.7 27.3 16.9 55 6.2 NNW 9 13 5 7 1010.7 1008.6 -
18/11:00pm 26.8 27.5 17.0 55 6.2 N 9 11 5 6 1010.8 1008.7 -
18/10:30pm 27.6 27.5 16.9 52 6.8 N 13 15 7 8 1010.8 1008.7 -
18/10:00pm 28.2 28.2 17.1 51 7.1 N 13 15 7 8 1010.9 1008.8 -
18/09:30pm 28.4 28.4 17.3 51 7.1 N 13 15 7 8 1010.8 1008.7 -
18/09:00pm 29.1 29.9 17.3 49 7.5 NNE 9 11 5 6 1010.8 1008.7 -
18/08:30pm 29.0 29.3 16.9 48 7.7 NNE 11 13 6 7 1010.7 1008.6 -
18/08:00pm 30.4 30.8 15.3 40 9.4 NNW 7 9 4 5 1010.3 1008.2 -
18/07:30pm 32.7 33.8 13.4 31 11.8 CALM 0 0 0 0 1010.1 1008.1 -
18/07:00pm 34.7 35.3 11.8 25 13.8 CALM 0 0 0 0 1009.8 1007.8 -
18/06:30pm 36.6 35.7 11.4 22 15.2 WNW 7 11 4 6 1009.8 1007.8 -
18/06:00pm 36.5 35.8 11.3 22 15.2 NNE 6 9 3 5 1009.7 1007.7 -
18/05:30pm 36.6 35.3 11.4 22 15.2 NNE 9 13 5 7 1009.5 1007.5 -
18/05:00pm 37.3 36.1 12.7 23 15.1 NNE 11 15 6 8 1009.5 1007.5 -
18/04:30pm 36.9 36.3 12.4 23 15.0 NNE 7 9 4 5 1009.5 1007.5 -
18/04:00pm 37.3 35.7 12.7 23 15.1 NNE 13 24 7 13 1009.7 1007.7 -
18/03:30pm 37.0 35.3 12.4 23 15.0 NNE 13 17 7 9 1010.3 1008.2 -
18/03:00pm 37.4 34.9 13.4 24 14.9 NE 19 24 10 13 1010.8 1008.7 -

Other Formats:

Comma delimited format used in spreadsheet applications
http://www.bom.gov.au/fwo/IDQ60801/IDQ60801.94515.axf

JavaScript Object Notation format (JSON) in row-major order
http://www.bom.gov.au/fwo/IDQ60801/IDQ60801.94515.json